Terminal Aerodrome Forecast
Issued by NWS

Home | Current Version | Previous Version | Text Only | Print | Product List | Glossary On
Versions: 1 2 3 4 5 6 7 8 9 10 11 12 13 14 15 16 17 18 19 20 21
000
FTUS43 KPAH 152224 AAA
TAFCGI
TAF AMD
KCGI 152224Z 1522/1618 19005KT P6SM BKN025
      TEMPO 1523/1603 SCT025 BKN035
     FM160300 15003KT P6SM SCT025 BKN040 OVC100
     FM161500 20007KT P6SM BKN070=

USA.gov is the U.S. government's official web portal to all federal, state and local government web resources and services.